createdAt,value
2023-03-15T00:02:55.620Z,2.07
2023-03-15T00:07:58.945Z,1.30
2023-03-15T00:13:01.469Z,1.80
2023-03-15T00:18:04.089Z,2.80
2023-03-15T00:23:06.685Z,2.20
2023-03-15T00:28:09.333Z,1.93
2023-03-15T00:33:13.999Z,2.17
2023-03-15T00:38:16.598Z,2.93
2023-03-15T00:43:19.204Z,2.50
2023-03-15T00:48:21.795Z,1.80
2023-03-15T00:53:24.280Z,1.57
2023-03-15T00:58:27.613Z,2.37
2023-03-15T01:03:30.151Z,2.50
2023-03-15T01:08:32.744Z,2.60
2023-03-15T01:13:36.151Z,1.60
2023-03-15T01:18:39.138Z,2.23
2023-03-15T01:23:42.305Z,1.50
2023-03-15T01:28:45.205Z,2.17
2023-03-15T01:33:48.052Z,2.67
2023-03-15T01:38:51.159Z,2.43
2023-03-15T01:43:58.556Z,2.10
2023-03-15T01:49:25.046Z,2.43
2023-03-15T01:55:06.207Z,2.10
2023-03-15T02:00:18.583Z,2.63
2023-03-15T02:05:36.944Z,2.23
2023-03-15T02:10:49.545Z,1.63
2023-03-15T02:15:53.987Z,1.67
2023-03-15T02:21:22.456Z,2.33
2023-03-15T02:26:34.889Z,1.47
2023-03-15T02:31:38.333Z,2.10
2023-03-15T02:36:41.248Z,1.60
2023-03-15T02:41:48.945Z,2.17
2023-03-15T02:46:53.661Z,2.60
2023-03-15T02:51:57.019Z,2.07
2023-03-15T02:56:59.685Z,1.70
2023-03-15T03:02:02.794Z,1.73
2023-03-15T03:07:06.234Z,2.67
2023-03-15T03:12:18.219Z,2.10
2023-03-15T03:17:20.889Z,1.53
2023-03-15T03:22:24.701Z,1.77
2023-03-15T03:27:27.232Z,1.63
2023-03-15T03:32:30.248Z,1.97
2023-03-15T03:37:35.947Z,1.40
2023-03-15T03:42:47.379Z,1.80
2023-03-15T03:47:53.346Z,2.17
2023-03-15T03:52:56.117Z,1.43
2023-03-15T03:58:03.537Z,1.77
2023-03-15T04:03:16.775Z,1.67
2023-03-15T04:08:25.586Z,2.30
2023-03-15T04:13:28.947Z,1.97
2023-03-15T04:18:33.880Z,1.97
2023-03-15T04:23:37.662Z,1.90
2023-03-15T04:28:51.156Z,1.80
2023-03-15T04:34:09.112Z,1.70
2023-03-15T04:39:30.910Z,1.40
2023-03-15T04:44:45.944Z,1.77
2023-03-15T04:50:07.380Z,1.57
2023-03-15T04:55:32.400Z,2.30
2023-03-15T05:00:53.334Z,2.10
2023-03-15T05:06:22.709Z,1.77
2023-03-15T05:11:43.790Z,1.73
2023-03-15T05:17:04.902Z,2.70
2023-03-15T05:22:28.410Z,2.37
2023-03-15T05:27:52.901Z,2.40
2023-03-15T05:33:21.253Z,2.33
2023-03-15T05:38:46.295Z,2.30
2023-03-15T05:44:11.546Z,1.80
2023-03-15T05:49:36.604Z,2.17
2023-03-15T05:54:54.292Z,3.13
2023-03-15T06:00:20.756Z,1.83
2023-03-15T06:05:27.734Z,1.80
2023-03-15T06:10:32.012Z,2.23
2023-03-15T06:15:40.225Z,1.90
2023-03-15T06:20:44.674Z,1.83
2023-03-15T06:25:50.456Z,1.87
2023-03-15T06:30:54.913Z,1.87
2023-03-15T06:36:04.306Z,2.17
2023-03-15T06:41:07.731Z,1.90
2023-03-15T06:46:12.104Z,2.30
2023-03-15T06:51:14.785Z,2.70
2023-03-15T06:56:17.561Z,2.13
2023-03-15T07:01:20.168Z,2.10
2023-03-15T07:06:23.023Z,1.70
2023-03-15T07:11:25.631Z,1.90
2023-03-15T07:16:28.270Z,1.10
2023-03-15T07:21:30.853Z,1.37
2023-03-15T07:26:33.506Z,1.90
2023-03-15T07:31:36.032Z,1.30
2023-03-15T07:36:38.692Z,1.80
2023-03-15T07:41:41.236Z,1.93
2023-03-15T07:46:56.157Z,1.20
2023-03-15T07:51:58.804Z,2.13
2023-03-15T07:57:01.715Z,2.50
2023-03-15T08:02:04.702Z,1.43
2023-03-15T08:07:07.723Z,1.33
2023-03-15T08:12:10.628Z,0.63
2023-03-15T08:17:16.257Z,2.87
2023-03-15T08:22:19.169Z,1.77
2023-03-15T08:27:21.788Z,2.67
2023-03-15T08:32:24.383Z,2.03
2023-03-15T08:37:27.092Z,1.77
2023-03-15T08:42:29.666Z,2.47
2023-03-15T08:47:32.223Z,2.20
2023-03-15T08:52:35.185Z,2.67
2023-03-15T08:57:37.761Z,2.27
2023-03-15T09:02:40.382Z,2.33
2023-03-15T09:07:43.694Z,3.30
2023-03-15T09:12:49.258Z,2.40
2023-03-15T09:17:52.036Z,1.70
2023-03-15T09:22:56.739Z,1.77
2023-03-15T09:27:59.323Z,1.43
2023-03-15T09:33:02.007Z,1.50
2023-03-15T09:38:04.547Z,0.83
2023-03-15T09:43:07.041Z,1.27
2023-03-15T09:48:28.045Z,0.60
2023-03-15T09:54:06.030Z,1.00
2023-03-15T09:59:10.476Z,1.80
2023-03-15T10:04:16.870Z,1.50
2023-03-15T10:09:23.029Z,1.17
2023-03-15T10:14:28.403Z,1.93
2023-03-15T10:19:46.719Z,1.47
2023-03-15T10:24:59.345Z,1.47
2023-03-15T10:30:13.192Z,1.43
2023-03-15T10:35:18.285Z,0.93
2023-03-15T10:40:59.935Z,1.40
2023-03-15T10:46:08.647Z,1.37
2023-03-15T10:51:23.499Z,1.50
2023-03-15T10:56:32.367Z,1.10
2023-03-15T11:01:35.014Z,1.17
2023-03-15T11:06:44.534Z,1.53
2023-03-15T11:12:00.050Z,8.30
2023-03-15T11:17:05.448Z,1.27
2023-03-15T11:22:12.723Z,1.10
2023-03-15T11:27:19.102Z,1.00
2023-03-15T11:32:25.137Z,1.20
2023-03-15T11:38:03.135Z,1.03
2023-03-15T11:43:51.976Z,1.20
2023-03-15T11:49:01.390Z,1.07
2023-03-15T11:54:17.358Z,1.07
2023-03-15T11:59:33.751Z,0.93
2023-03-15T12:04:36.448Z,0.80
2023-03-15T12:09:45.870Z,2.30
2023-03-15T12:14:48.494Z,2.17
2023-03-15T12:20:20.225Z,1.03
2023-03-15T12:25:33.863Z,1.00
2023-03-15T12:30:57.117Z,1.03
2023-03-15T12:36:16.397Z,1.10
2023-03-15T12:41:50.080Z,1.43
2023-03-15T12:46:52.631Z,1.37
2023-03-15T12:51:59.826Z,1.13
2023-03-15T12:57:05.050Z,1.50
2023-03-15T13:02:41.721Z,0.70
2023-03-15T13:07:58.595Z,1.27
2023-03-15T13:13:08.344Z,0.80
2023-03-15T13:18:35.028Z,1.60
2023-03-15T13:23:37.867Z,1.37
2023-03-15T13:28:58.386Z,1.47
2023-03-15T13:34:24.458Z,2.57
2023-03-15T13:39:30.630Z,1.20
2023-03-15T13:44:33.951Z,1.37
2023-03-15T13:49:36.453Z,1.73
2023-03-15T13:54:40.234Z,1.70
2023-03-15T14:00:02.047Z,1.60
2023-03-15T14:05:11.096Z,1.50
2023-03-15T14:10:34.639Z,1.17
2023-03-15T14:15:43.094Z,1.07
2023-03-15T14:20:47.976Z,1.03
2023-03-15T14:25:55.756Z,1.60
2023-03-15T14:30:59.861Z,0.97
2023-03-15T14:36:05.582Z,0.90
2023-03-15T14:41:33.313Z,2.07
2023-03-15T14:46:36.411Z,0.80
2023-03-15T14:51:38.907Z,1.73
2023-03-15T14:56:44.373Z,2.70
2023-03-15T15:01:51.709Z,1.50
2023-03-15T15:06:56.009Z,2.90
2023-03-15T15:11:58.698Z,2.27
2023-03-15T15:17:01.312Z,2.13
2023-03-15T15:22:04.080Z,2.20
2023-03-15T15:27:09.597Z,1.87
2023-03-15T15:32:12.058Z,2.13
2023-03-15T15:37:15.524Z,3.63
2023-03-15T15:42:18.240Z,3.83
2023-03-15T15:47:20.964Z,4.77
2023-03-15T15:52:23.430Z,2.20
2023-03-15T15:57:26.651Z,2.07
2023-03-15T16:02:29.428Z,2.33
2023-03-15T16:07:32.052Z,2.63
2023-03-15T16:12:35.695Z,2.90
2023-03-15T16:17:38.829Z,2.37
2023-03-15T16:22:45.564Z,4.13
2023-03-15T16:27:48.139Z,4.03
2023-03-15T16:32:55.231Z,4.63
2023-03-15T16:37:59.035Z,4.07
2023-03-15T16:43:01.768Z,4.10
2023-03-15T16:48:04.782Z,4.10
2023-03-15T16:53:10.151Z,3.57
2023-03-15T16:58:21.949Z,3.90
2023-03-15T17:03:25.791Z,3.67
2023-03-15T17:08:28.526Z,6.97
2023-03-15T17:13:32.910Z,6.90
2023-03-15T17:18:35.695Z,6.17
2023-03-15T17:23:38.399Z,4.47
2023-03-15T17:34:02.561Z,9.63
2023-03-15T17:39:09.772Z,13.80
2023-03-15T17:44:12.343Z,14.23
2023-03-15T17:49:16.325Z,13.20
2023-03-15T17:54:20.821Z,10.53
2023-03-15T17:59:23.487Z,9.17
2023-03-15T18:04:26.083Z,9.77
2023-03-15T18:09:28.846Z,13.43
2023-03-15T18:14:37.271Z,14.77
2023-03-15T18:19:39.923Z,15.73
2023-03-15T18:24:42.470Z,19.83
2023-03-15T18:29:44.966Z,16.20
2023-03-15T18:34:47.552Z,17.73
2023-03-15T18:39:50.195Z,15.87
2023-03-15T18:44:52.677Z,14.90
2023-03-15T18:50:00.999Z,18.60
2023-03-15T18:55:08.653Z,15.40
2023-03-15T19:00:14.395Z,15.67
2023-03-15T19:05:17.717Z,25.43
2023-03-15T19:10:21.660Z,22.13
2023-03-15T19:15:24.389Z,22.97
2023-03-15T19:20:26.995Z,24.90
2023-03-15T19:25:29.590Z,20.40
2023-03-15T19:30:32.681Z,24.67
2023-03-15T19:35:35.508Z,27.70
2023-03-15T19:40:38.874Z,27.63
2023-03-15T19:45:41.819Z,26.37
2023-03-15T19:50:44.518Z,23.20
2023-03-15T19:55:47.091Z,27.10
2023-03-15T20:00:50.514Z,33.23
2023-03-15T20:05:53.093Z,38.33
2023-03-15T20:11:04.033Z,33.33
2023-03-15T20:16:07.394Z,30.73
2023-03-15T20:21:10.303Z,35.53
2023-03-15T20:26:15.796Z,36.03
2023-03-15T20:31:19.529Z,36.37
2023-03-15T20:36:22.399Z,35.67
2023-03-15T20:41:24.923Z,41.90
2023-03-15T20:46:27.677Z,41.63
2023-03-15T20:51:30.330Z,43.37
2023-03-15T20:56:34.290Z,44.33
2023-03-15T21:01:36.874Z,41.13
2023-03-15T21:06:39.400Z,37.80
2023-03-15T21:11:42.902Z,34.50
2023-03-15T21:16:45.455Z,32.27
2023-03-15T21:21:48.176Z,31.70
2023-03-15T21:26:54.731Z,34.70
2023-03-15T21:31:58.622Z,35.77
2023-03-15T21:37:02.511Z,63.60
2023-03-15T21:42:05.702Z,48.13
2023-03-15T21:47:08.298Z,50.97
2023-03-15T21:52:12.433Z,61.23
2023-03-15T21:57:15.017Z,64.23
2023-03-15T22:02:17.798Z,64.47
2023-03-15T22:07:20.494Z,43.13
2023-03-15T22:12:25.404Z,41.87
2023-03-15T22:17:29.276Z,47.47
2023-03-15T22:22:31.904Z,47.17
2023-03-15T22:27:34.495Z,44.23
2023-03-15T22:32:37.011Z,43.73
2023-03-15T22:37:39.718Z,42.97
2023-03-15T22:42:43.386Z,41.20
2023-03-15T22:47:46.345Z,41.70
2023-03-15T22:52:51.819Z,27.33
2023-03-15T22:57:54.561Z,25.47
2023-03-15T23:02:57.115Z,26.47
2023-03-15T23:07:59.646Z,21.83
2023-03-15T23:13:03.776Z,20.87
2023-03-15T23:18:06.623Z,18.23
2023-03-15T23:23:09.271Z,18.60
2023-03-15T23:28:11.846Z,19.03
2023-03-15T23:33:14.348Z,19.37
2023-03-15T23:38:16.899Z,17.67
2023-03-15T23:43:19.350Z,17.70
2023-03-15T23:48:22.286Z,20.80
2023-03-15T23:53:26.000Z,24.13
2023-03-15T23:58:29.328Z,20.47
